createdAt,value
2022-08-24T00:01:19.979Z,14.90
2022-08-24T00:03:48.424Z,14.60
2022-08-24T00:06:23.334Z,15.25
2022-08-24T00:08:52.182Z,15.50
2022-08-24T00:11:19.610Z,15.38
2022-08-24T00:13:47.587Z,14.93
2022-08-24T00:16:15.975Z,15.60
2022-08-24T00:18:44.728Z,15.38
2022-08-24T00:21:12.839Z,15.75
2022-08-24T00:23:40.275Z,15.35
2022-08-24T00:26:07.636Z,15.43
2022-08-24T00:28:35.369Z,15.57
2022-08-24T00:31:02.623Z,15.48
2022-08-24T00:33:29.986Z,15.15
2022-08-24T00:35:58.026Z,15.50
2022-08-24T00:38:27.731Z,15.40
2022-08-24T00:40:57.084Z,15.80
2022-08-24T00:43:26.480Z,15.40
2022-08-24T00:46:03.014Z,15.43
2022-08-24T00:48:33.839Z,15.02
2022-08-24T00:51:18.248Z,15.18
2022-08-24T00:53:56.302Z,15.73
2022-08-24T00:56:28.045Z,15.90
2022-08-24T00:59:00.919Z,15.65
2022-08-24T01:01:29.436Z,15.77
2022-08-24T01:03:58.218Z,15.57
2022-08-24T01:06:25.372Z,15.48
2022-08-24T01:08:56.382Z,15.55
2022-08-24T01:11:27.623Z,15.45
2022-08-24T01:14:03.123Z,15.55
2022-08-24T01:16:49.266Z,15.77
2022-08-24T01:19:37.318Z,15.68
2022-08-24T01:22:55.539Z,15.68
2022-08-24T01:25:25.538Z,16.20
2022-08-24T01:27:56.877Z,15.13
2022-08-24T01:30:30.772Z,15.20
2022-08-24T01:33:07.629Z,15.82
2022-08-24T01:35:36.831Z,16.20
2022-08-24T01:38:08.527Z,17.10
2022-08-24T01:40:44.201Z,16.42
2022-08-24T01:43:12.855Z,15.88
2022-08-24T01:45:39.951Z,16.27
2022-08-24T01:48:07.183Z,16.67
2022-08-24T01:50:34.239Z,15.73
2022-08-24T01:53:05.567Z,15.70
2022-08-24T01:55:33.694Z,15.68
2022-08-24T01:58:01.415Z,15.60
2022-08-24T02:00:28.689Z,16.30
2022-08-24T02:02:57.304Z,16.52
2022-08-24T02:05:25.613Z,15.90
2022-08-24T02:07:52.779Z,15.10
2022-08-24T02:10:19.934Z,16.02
2022-08-24T02:12:58.101Z,15.60
2022-08-24T02:15:29.979Z,15.52
2022-08-24T02:17:57.875Z,15.68
2022-08-24T02:20:25.159Z,15.35
2022-08-24T02:22:53.021Z,16.50
2022-08-24T02:25:21.169Z,15.20
2022-08-24T02:27:48.462Z,15.30
2022-08-24T02:30:16.013Z,16.08
2022-08-24T02:32:43.430Z,16.35
2022-08-24T02:35:11.260Z,16.27
2022-08-24T02:37:43.709Z,16.27
2022-08-24T02:40:12.595Z,15.48
2022-08-24T02:42:39.815Z,15.93
2022-08-24T02:45:07.890Z,16.35
2022-08-24T02:47:38.994Z,15.98
2022-08-24T02:50:09.694Z,16.05
2022-08-24T02:52:39.623Z,15.18
2022-08-24T02:55:09.419Z,16.05
2022-08-24T02:57:38.608Z,15.70
2022-08-24T03:00:10.591Z,16.13
2022-08-24T03:02:38.334Z,15.90
2022-08-24T03:05:06.663Z,16.75
2022-08-24T03:07:33.875Z,16.05
2022-08-24T03:10:00.843Z,16.35
2022-08-24T03:12:28.483Z,17.02
2022-08-24T03:14:55.504Z,16.30
2022-08-24T03:17:24.058Z,16.77
2022-08-24T03:19:51.171Z,15.68
2022-08-24T03:22:19.017Z,16.40
2022-08-24T03:24:46.000Z,15.95
2022-08-24T03:27:14.321Z,16.23
2022-08-24T03:29:41.741Z,14.68
2022-08-24T03:32:08.982Z,15.98
2022-08-24T03:34:36.518Z,15.93
2022-08-24T03:37:03.628Z,15.95
2022-08-24T03:39:30.659Z,15.73
2022-08-24T03:41:57.682Z,15.40
2022-08-24T03:44:25.908Z,15.00
2022-08-24T03:46:54.009Z,14.68
2022-08-24T03:49:21.510Z,14.63
2022-08-24T03:51:49.960Z,15.23
2022-08-24T03:54:17.995Z,15.60
2022-08-24T03:56:45.837Z,14.75
2022-08-24T03:59:13.644Z,15.32
2022-08-24T04:01:42.691Z,15.25
2022-08-24T04:04:10.606Z,16.08
2022-08-24T04:06:38.586Z,15.75
2022-08-24T04:09:07.707Z,15.82
2022-08-24T04:11:37.465Z,16.95
2022-08-24T04:14:08.371Z,17.02
2022-08-24T04:16:39.508Z,16.50
2022-08-24T04:19:06.543Z,16.10
2022-08-24T04:21:36.662Z,17.17
2022-08-24T04:24:06.123Z,18.40
2022-08-24T04:26:44.721Z,17.33
2022-08-24T04:29:14.897Z,17.38
2022-08-24T04:31:43.402Z,17.60
2022-08-24T04:34:11.374Z,16.58
2022-08-24T04:36:40.690Z,16.88
2022-08-24T04:39:07.857Z,15.85
2022-08-24T04:41:35.386Z,15.25
2022-08-24T04:44:03.484Z,15.90
2022-08-24T04:46:30.985Z,15.52
2022-08-24T04:48:58.372Z,15.95
2022-08-24T04:51:25.407Z,16.83
2022-08-24T04:53:52.554Z,15.77
2022-08-24T04:56:24.048Z,16.55
2022-08-24T04:58:55.686Z,17.67
2022-08-24T05:01:26.032Z,20.00
2022-08-24T05:03:55.246Z,19.13
2022-08-24T05:06:29.098Z,20.08
2022-08-24T05:08:56.984Z,20.73
2022-08-24T05:11:24.990Z,19.20
2022-08-24T05:13:53.750Z,18.63
2022-08-24T05:16:22.210Z,18.65
2022-08-24T05:18:49.887Z,18.75
2022-08-24T05:21:20.088Z,19.17
2022-08-24T05:23:48.865Z,18.73
2022-08-24T05:26:21.659Z,18.20
2022-08-24T05:28:48.863Z,19.00
2022-08-24T05:31:19.451Z,18.98
2022-08-24T05:33:48.246Z,18.83
2022-08-24T05:36:18.723Z,19.25
2022-08-24T05:38:46.799Z,19.08
2022-08-24T05:41:15.274Z,19.48
2022-08-24T05:43:42.330Z,20.15
2022-08-24T05:46:09.561Z,19.48
2022-08-24T05:48:37.435Z,20.38
2022-08-24T05:51:06.084Z,20.02
2022-08-24T05:53:33.669Z,19.67
2022-08-24T05:56:12.813Z,19.42
2022-08-24T05:58:40.399Z,19.25
2022-08-24T06:01:14.750Z,19.48
2022-08-24T06:03:42.515Z,19.63
2022-08-24T06:06:11.199Z,19.77
2022-08-24T06:08:41.840Z,18.98
2022-08-24T06:11:10.096Z,18.63
2022-08-24T06:13:37.564Z,19.55
2022-08-24T06:16:20.835Z,18.45
2022-08-24T06:18:50.907Z,17.77
2022-08-24T06:21:23.746Z,18.65
2022-08-24T06:23:51.467Z,18.33
2022-08-24T06:26:38.319Z,18.02
2022-08-24T06:29:05.992Z,17.98
2022-08-24T06:31:42.000Z,18.33
2022-08-24T06:34:14.558Z,18.30
2022-08-24T06:36:41.812Z,17.52
2022-08-24T06:39:10.291Z,18.13
2022-08-24T06:41:38.841Z,17.75
2022-08-24T06:44:07.268Z,17.38
2022-08-24T06:46:36.572Z,17.95
2022-08-24T06:49:04.191Z,18.65
2022-08-24T06:51:32.682Z,17.58
2022-08-24T06:54:00.154Z,16.60
2022-08-24T06:56:27.233Z,17.98
2022-08-24T06:58:54.299Z,16.77
2022-08-24T07:01:24.963Z,16.90
2022-08-24T07:03:52.746Z,17.17
2022-08-24T07:06:20.466Z,17.23
2022-08-24T07:08:47.794Z,17.23
2022-08-24T07:11:18.209Z,16.70
2022-08-24T07:13:49.671Z,16.70
2022-08-24T07:16:18.776Z,16.55
2022-08-24T07:18:49.309Z,16.40
2022-08-24T07:21:19.878Z,16.67
2022-08-24T07:23:48.825Z,16.63
2022-08-24T07:26:22.765Z,16.65
2022-08-24T07:31:39.934Z,16.30
2022-08-24T07:34:09.203Z,16.52
2022-08-24T07:36:41.019Z,15.85
2022-08-24T07:39:11.500Z,15.98
2022-08-24T07:42:11.935Z,16.58
2022-08-24T07:44:28.973Z,16.35
2022-08-24T07:46:56.024Z,16.05
2022-08-24T07:49:36.067Z,16.48
2022-08-24T07:52:04.911Z,15.95
2022-08-24T07:54:31.887Z,15.88
2022-08-24T07:57:00.587Z,16.00
2022-08-24T07:59:27.683Z,16.75
2022-08-24T08:01:54.765Z,16.20
2022-08-24T08:04:25.237Z,16.25
2022-08-24T08:06:53.665Z,16.42
2022-08-24T08:09:21.249Z,16.48
2022-08-24T08:11:50.071Z,16.35
2022-08-24T08:17:33.293Z,16.15
2022-08-24T08:20:00.365Z,15.57
2022-08-24T08:22:45.763Z,16.67
2022-08-24T08:25:13.198Z,16.33
2022-08-24T08:27:40.273Z,16.10
2022-08-24T08:30:07.974Z,16.40
2022-08-24T08:32:34.942Z,16.20
2022-08-24T08:35:03.136Z,16.35
2022-08-24T08:37:31.346Z,16.33
2022-08-24T08:39:58.678Z,16.23
2022-08-24T08:42:28.508Z,16.13
2022-08-24T08:45:01.371Z,16.50
2022-08-24T08:47:59.358Z,16.13
2022-08-24T08:51:14.005Z,16.30
2022-08-24T08:54:12.894Z,16.23
2022-08-24T08:57:01.759Z,15.88
2022-08-24T08:59:59.474Z,16.58
2022-08-24T09:03:24.034Z,16.58
2022-08-24T09:06:20.241Z,17.00
2022-08-24T09:09:11.502Z,16.30
2022-08-24T09:12:07.548Z,17.00
2022-08-24T09:14:49.979Z,16.45
2022-08-24T09:17:58.958Z,16.65
2022-08-24T09:20:53.930Z,16.60
2022-08-24T09:23:38.536Z,16.48
2022-08-24T09:26:18.905Z,16.90
2022-08-24T09:29:08.102Z,16.75
2022-08-24T09:31:44.238Z,17.05
2022-08-24T09:34:28.287Z,17.02
2022-08-24T09:37:03.940Z,17.15
2022-08-24T09:39:38.827Z,17.67
2022-08-24T09:42:08.711Z,17.25
2022-08-24T09:44:54.600Z,19.15
2022-08-24T09:47:33.468Z,17.17
2022-08-24T09:50:35.311Z,17.15
2022-08-24T09:53:13.176Z,17.25
2022-08-24T09:55:58.241Z,17.30
2022-08-24T09:58:43.772Z,16.92
2022-08-24T10:01:37.666Z,16.70
2022-08-24T10:04:38.742Z,17.17
2022-08-24T10:07:18.469Z,16.67
2022-08-24T10:10:03.274Z,16.70
2022-08-24T10:12:56.013Z,17.00
2022-08-24T10:15:29.669Z,16.80
2022-08-24T10:18:14.394Z,16.55
2022-08-24T10:21:12.704Z,16.13
2022-08-24T10:24:05.699Z,16.33
2022-08-24T10:26:54.415Z,17.15
2022-08-24T10:29:39.532Z,17.23
2022-08-24T10:32:30.533Z,17.55
2022-08-24T10:35:22.129Z,17.65
2022-08-24T10:38:38.178Z,18.10
2022-08-24T10:41:43.166Z,16.58
2022-08-24T10:44:17.186Z,16.67
2022-08-24T10:46:56.592Z,16.95
2022-08-24T10:49:47.063Z,17.17
2022-08-24T10:52:25.624Z,16.90
2022-08-24T10:54:52.854Z,16.70
2022-08-24T10:57:52.393Z,17.63
2022-08-24T11:00:23.310Z,17.27
2022-08-24T11:03:05.095Z,16.83
2022-08-24T11:05:47.161Z,17.08
2022-08-24T11:08:30.180Z,17.13
2022-08-24T11:11:22.447Z,16.25
2022-08-24T11:14:00.330Z,17.25
2022-08-24T11:16:35.963Z,17.10
2022-08-24T11:19:07.906Z,17.13
2022-08-24T11:21:48.222Z,16.77
2022-08-24T11:24:26.815Z,16.42
2022-08-24T11:27:20.194Z,17.75
2022-08-24T11:29:50.063Z,17.88
2022-08-24T11:32:39.436Z,16.70
2022-08-24T11:35:25.961Z,16.50
2022-08-24T11:37:56.765Z,17.25
2022-08-24T11:40:34.614Z,17.33
2022-08-24T11:43:26.612Z,16.75
2022-08-24T11:46:15.302Z,16.33
2022-08-24T11:49:14.695Z,16.65
2022-08-24T11:52:01.911Z,16.38
2022-08-24T11:54:51.113Z,15.80
2022-08-24T11:57:35.325Z,16.42
2022-08-24T12:00:23.656Z,15.73
2022-08-24T12:03:06.425Z,16.33
2022-08-24T12:05:50.456Z,15.93
2022-08-24T12:08:21.347Z,16.20
2022-08-24T12:11:09.170Z,16.27
2022-08-24T12:13:39.264Z,15.70
2022-08-24T12:16:13.216Z,15.65
2022-08-24T12:21:23.711Z,16.70
2022-08-24T12:23:59.174Z,16.48
2022-08-24T12:26:31.801Z,16.85
2022-08-24T12:29:08.051Z,15.93
2022-08-24T12:31:51.012Z,16.00
2022-08-24T12:34:39.826Z,16.35
2022-08-24T12:37:19.935Z,17.33
2022-08-24T12:40:19.111Z,16.20
2022-08-24T12:43:04.507Z,16.08
2022-08-24T12:45:31.623Z,16.38
2022-08-24T12:48:32.918Z,15.90
2022-08-24T12:51:26.714Z,16.65
2022-08-24T12:54:02.763Z,16.40
2022-08-24T12:56:57.122Z,15.38
2022-08-24T12:59:27.214Z,16.30
2022-08-24T13:02:03.247Z,16.30
2022-08-24T13:04:35.850Z,16.05
2022-08-24T13:07:19.691Z,15.88
2022-08-24T13:10:00.779Z,16.60
2022-08-24T13:12:41.897Z,16.50
2022-08-24T13:15:24.351Z,16.20
2022-08-24T13:17:57.737Z,16.38
2022-08-24T13:20:35.014Z,16.08
2022-08-24T13:23:14.524Z,21.88
2022-08-24T13:25:47.642Z,15.65
2022-08-24T13:28:23.472Z,16.20
2022-08-24T13:31:05.991Z,16.38
2022-08-24T13:33:54.472Z,16.45
2022-08-24T13:37:16.107Z,16.80
2022-08-24T13:40:05.924Z,19.60
2022-08-24T13:42:35.967Z,15.90
2022-08-24T13:45:34.381Z,15.98
2022-08-24T13:48:07.211Z,15.80
2022-08-24T13:50:50.539Z,15.32
2022-08-24T13:53:52.974Z,15.75
2022-08-24T13:56:33.713Z,15.32
2022-08-24T13:59:21.861Z,15.18
2022-08-24T14:02:00.988Z,15.52
2022-08-24T14:05:09.604Z,15.60
2022-08-24T14:08:15.035Z,15.77
2022-08-24T14:11:14.659Z,15.30
2022-08-24T14:13:50.553Z,14.95
2022-08-24T14:16:53.621Z,16.40
2022-08-24T14:19:44.031Z,15.60
2022-08-24T14:22:11.004Z,15.85
2022-08-24T14:24:49.823Z,15.77
2022-08-24T14:28:11.524Z,15.40
2022-08-24T14:30:43.497Z,15.82
2022-08-24T14:33:30.721Z,15.43
2022-08-24T14:36:12.105Z,15.43
2022-08-24T14:38:51.155Z,16.25
2022-08-24T14:41:55.928Z,15.60
2022-08-24T14:44:51.931Z,16.00
2022-08-24T14:47:43.474Z,15.63
2022-08-24T14:50:17.379Z,15.07
2022-08-24T14:55:20.802Z,15.55
2022-08-24T14:58:18.650Z,15.25
2022-08-24T15:01:12.393Z,15.52
2022-08-24T15:03:52.087Z,15.40
2022-08-24T15:06:37.365Z,15.50
2022-08-24T15:09:21.662Z,15.57
2022-08-24T15:14:41.325Z,15.25
2022-08-24T15:17:13.322Z,14.88
2022-08-24T15:20:02.722Z,15.00
2022-08-24T15:22:40.436Z,15.02
2022-08-24T15:25:19.131Z,15.15
2022-08-24T15:27:56.058Z,15.07
2022-08-24T15:30:34.865Z,14.60
2022-08-24T15:33:05.552Z,15.48
2022-08-24T15:35:36.195Z,15.02
2022-08-24T15:38:23.557Z,14.85
2022-08-24T15:41:32.838Z,14.75
2022-08-24T15:44:04.778Z,14.80
2022-08-24T15:46:38.403Z,14.68
2022-08-24T15:49:30.626Z,15.70
2022-08-24T15:52:11.082Z,16.17
2022-08-24T15:54:59.389Z,15.82
2022-08-24T15:57:30.339Z,16.20
2022-08-24T16:00:15.795Z,16.35
2022-08-24T16:02:43.768Z,16.75
2022-08-24T16:05:10.823Z,16.90
2022-08-24T16:08:03.863Z,16.92
2022-08-24T16:10:53.779Z,16.75
2022-08-24T16:13:24.983Z,17.15
2022-08-24T16:16:01.895Z,16.52
2022-08-24T16:19:00.066Z,16.80
2022-08-24T16:21:38.960Z,17.30
2022-08-24T16:24:21.297Z,16.52
2022-08-24T16:26:48.226Z,16.33
2022-08-24T16:29:37.601Z,15.98
2022-08-24T16:32:29.956Z,15.88
2022-08-24T16:37:36.661Z,16.40
2022-08-24T16:40:05.288Z,16.02
2022-08-24T16:42:33.040Z,15.93
2022-08-24T16:45:00.643Z,16.20
2022-08-24T16:47:28.731Z,16.33
2022-08-24T16:49:55.831Z,16.08
2022-08-24T16:52:23.364Z,16.10
2022-08-24T16:54:50.780Z,15.93
2022-08-24T16:57:19.698Z,15.90
2022-08-24T16:59:51.286Z,15.48
2022-08-24T17:02:19.900Z,16.00
2022-08-24T17:04:47.047Z,16.20
2022-08-24T17:07:21.862Z,16.50
2022-08-24T17:09:49.291Z,16.08
2022-08-24T17:12:16.470Z,15.25
2022-08-24T17:14:44.437Z,16.00
2022-08-24T17:17:15.365Z,15.95
2022-08-24T17:19:44.048Z,16.17
2022-08-24T17:22:15.975Z,15.50
2022-08-24T17:24:44.294Z,15.68
2022-08-24T17:27:12.342Z,15.80
2022-08-24T17:29:40.299Z,15.45
2022-08-24T17:32:07.331Z,15.50
2022-08-24T17:34:34.878Z,15.20
2022-08-24T17:37:02.277Z,14.85
2022-08-24T17:39:29.850Z,15.15
2022-08-24T17:41:58.756Z,14.50
2022-08-24T17:44:28.539Z,14.95
2022-08-24T17:46:58.939Z,14.60
2022-08-24T17:49:28.286Z,15.10
2022-08-24T17:51:56.118Z,14.70
2022-08-24T17:54:23.642Z,15.15
2022-08-24T17:56:51.424Z,14.95
2022-08-24T17:59:28.922Z,15.00
2022-08-24T18:01:59.627Z,15.20
2022-08-24T18:04:29.965Z,14.60
2022-08-24T18:06:59.306Z,15.27
2022-08-24T18:09:39.035Z,15.52
2022-08-24T18:12:08.349Z,15.02
2022-08-24T18:14:35.746Z,15.68
2022-08-24T18:17:07.054Z,15.40
2022-08-24T18:19:34.775Z,15.50
2022-08-24T18:22:02.180Z,14.80
2022-08-24T18:24:32.780Z,15.25
2022-08-24T18:27:23.858Z,14.90
2022-08-24T18:29:54.952Z,16.23
2022-08-24T18:32:24.394Z,16.30
2022-08-24T18:34:57.891Z,15.80
2022-08-24T18:37:25.124Z,15.77
2022-08-24T18:39:52.146Z,16.20
2022-08-24T18:42:19.298Z,15.63
2022-08-24T18:44:46.821Z,15.85
2022-08-24T18:47:14.094Z,16.38
2022-08-24T18:49:41.205Z,16.25
2022-08-24T18:52:09.961Z,16.40
2022-08-24T18:54:41.596Z,15.40
2022-08-24T18:57:13.145Z,15.63
2022-08-24T18:59:41.376Z,16.15
2022-08-24T19:02:36.123Z,15.68
2022-08-24T19:05:14.381Z,15.55
2022-08-24T19:07:46.293Z,15.68
2022-08-24T19:10:19.330Z,16.17
2022-08-24T19:12:55.016Z,16.08
2022-08-24T19:15:29.405Z,15.98
2022-08-24T19:18:06.811Z,15.98
2022-08-24T19:20:35.711Z,16.40
2022-08-24T19:23:10.723Z,15.98
2022-08-24T19:25:40.173Z,16.27
2022-08-24T19:28:07.518Z,16.40
2022-08-24T19:30:35.034Z,16.25
2022-08-24T19:33:02.933Z,16.20
2022-08-24T19:35:31.939Z,15.60
2022-08-24T19:37:59.010Z,16.40
2022-08-24T19:40:26.072Z,15.43
2022-08-24T19:42:54.477Z,15.80
2022-08-24T19:45:44.071Z,15.95
2022-08-24T19:48:12.663Z,15.35
2022-08-24T19:50:40.485Z,15.95
2022-08-24T19:53:08.287Z,15.50
2022-08-24T19:55:35.291Z,15.70
2022-08-24T19:58:30.564Z,16.60
2022-08-24T20:01:02.978Z,15.63
2022-08-24T20:03:30.090Z,15.07
2022-08-24T20:05:57.313Z,15.40
2022-08-24T20:08:24.675Z,15.40
2022-08-24T20:10:53.206Z,15.48
2022-08-24T20:13:20.256Z,15.55
2022-08-24T20:15:47.410Z,15.48
2022-08-24T20:18:15.169Z,15.52
2022-08-24T20:20:42.746Z,16.58
2022-08-24T20:23:09.783Z,16.15
2022-08-24T20:25:39.549Z,15.90
2022-08-24T20:30:55.974Z,16.33
2022-08-24T20:33:24.885Z,16.25
2022-08-24T20:35:52.079Z,16.63
2022-08-24T20:38:21.394Z,16.58
2022-08-24T20:40:49.327Z,17.00
2022-08-24T20:43:16.686Z,15.90
2022-08-24T20:45:43.863Z,16.17
2022-08-24T20:48:12.630Z,16.23
2022-08-24T20:50:43.617Z,16.50
2022-08-24T20:53:11.621Z,16.70
2022-08-24T20:55:40.665Z,16.45
2022-08-24T20:58:09.146Z,16.60
2022-08-24T21:00:36.907Z,16.95
2022-08-24T21:03:04.514Z,16.95
2022-08-24T21:05:31.631Z,16.90
2022-08-24T21:07:59.339Z,16.67
2022-08-24T21:10:27.437Z,17.10
2022-08-24T21:12:55.328Z,16.75
2022-08-24T21:15:23.501Z,17.00
2022-08-24T21:17:51.063Z,17.02
2022-08-24T21:20:19.888Z,17.08
2022-08-24T21:22:47.102Z,17.33
2022-08-24T21:25:15.308Z,17.42
2022-08-24T21:27:45.063Z,17.38
2022-08-24T21:30:16.625Z,17.92
2022-08-24T21:33:02.291Z,16.80
2022-08-24T21:35:29.782Z,17.80
2022-08-24T21:37:57.366Z,17.65
2022-08-24T21:40:26.383Z,19.15
2022-08-24T21:42:53.464Z,19.60
2022-08-24T21:45:20.558Z,18.30
2022-08-24T21:47:47.638Z,18.33
2022-08-24T21:50:16.254Z,17.90
2022-08-24T21:52:43.455Z,18.13
2022-08-24T21:55:14.839Z,18.65
2022-08-24T21:57:42.294Z,18.17
2022-08-24T22:00:15.327Z,17.90
2022-08-24T22:02:42.435Z,18.48
2022-08-24T22:05:10.516Z,18.40
2022-08-24T22:07:37.587Z,18.08
2022-08-24T22:10:07.530Z,19.52
2022-08-24T22:12:38.383Z,18.70
2022-08-24T22:15:07.728Z,18.80
2022-08-24T22:17:34.782Z,18.70
2022-08-24T22:20:01.990Z,18.45
2022-08-24T22:22:29.043Z,19.15
2022-08-24T22:24:56.360Z,18.38
2022-08-24T22:27:25.254Z,18.88
2022-08-24T22:29:52.891Z,18.25
2022-08-24T22:32:20.007Z,17.70
2022-08-24T22:34:47.054Z,17.98
2022-08-24T22:37:14.059Z,19.02
2022-08-24T22:39:41.170Z,18.77
2022-08-24T22:42:08.635Z,18.05
2022-08-24T22:44:35.952Z,18.15
2022-08-24T22:47:11.927Z,18.88
2022-08-24T22:49:45.747Z,18.30
2022-08-24T22:52:14.529Z,17.92
2022-08-24T22:54:41.716Z,18.65
2022-08-24T22:57:09.899Z,18.58
2022-08-24T22:59:39.341Z,19.00
2022-08-24T23:02:12.835Z,18.13
2022-08-24T23:04:43.678Z,18.17
2022-08-24T23:07:11.831Z,18.63
2022-08-24T23:09:44.598Z,19.17
2022-08-24T23:12:15.362Z,18.70
2022-08-24T23:14:43.342Z,18.27
2022-08-24T23:17:10.506Z,18.33
2022-08-24T23:19:55.974Z,18.35
2022-08-24T23:22:23.088Z,18.90
2022-08-24T23:24:50.379Z,19.30
